Time;durP1;ratioP1;P1;durP2;ratioP2;P2;SDS_P1;SDS_P2;PMS_P1;PMS_P2;Temp;Humidity;BMP_temperature;BMP_pressure;BME280_temperature;BME280_humidity;BME280_pressure;Samples;Min_cycle;Max_cycle;Signal;HPM_P1;HPM_P2
2021/12/13 00:01:55;;;;;;;0.00;0.00;;;4.80;99.90;;;;;;5075694;28;20032;-46
2021/12/13 00:04:32;;;;;;;0.00;0.00;;;4.90;99.90;;;;;;5091273;28;20048;-46
2021/12/13 00:07:04;;;;;;;0.00;0.00;;;4.80;99.90;;;;;;5076063;28;20032;-47
2021/12/13 00:09:33;;;;;;;0.10;0.10;;;5.00;99.90;;;;;;5076115;28;20070;-49
2021/12/13 00:12:02;;;;;;;0.00;0.00;;;4.90;99.90;;;;;;5078792;28;20056;-47
2021/12/13 00:14:45;;;;;;;0.00;0.00;;;4.90;99.90;;;;;;5075923;28;20017;-47
2021/12/13 00:17:24;;;;;;;0.25;0.17;;;4.90;99.90;;;;;;5075558;28;20108;-46
2021/12/13 00:19:59;;;;;;;0.00;0.00;;;4.90;99.90;;;;;;5075708;28;20016;-46
2021/12/13 00:22:38;;;;;;;0.03;0.03;;;4.90;99.90;;;;;;5096126;28;20074;-49
2021/12/13 00:25:07;;;;;;;0.17;0.10;;;4.90;99.90;;;;;;5076271;28;20024;-49
2021/12/13 00:27:41;;;;;;;0.00;0.00;;;4.90;99.90;;;;;;5075689;28;20013;-51
2021/12/13 00:30:29;;;;;;;0.00;0.00;;;4.80;99.90;;;;;;5075791;28;20031;-47
2021/12/13 00:33:00;;;;;;;0.00;0.00;;;4.80;99.90;;;;;;5075660;28;20025;-47
2021/12/13 00:35:33;;;;;;;;;;;5.00;99.90;;;;;;5075728;28;20027;-49
2021/12/13 00:38:03;;;;;;;0.00;0.00;;;4.90;99.90;;;;;;5075591;28;19900;-47
2021/12/13 00:40:44;;;;;;;0.00;0.00;;;5.00;99.90;;;;;;5075379;28;20035;-48
2021/12/13 00:43:23;;;;;;;0.00;0.00;;;4.90;99.90;;;;;;5075125;28;20020;-46
2021/12/13 00:46:00;;;;;;;0.00;0.00;;;4.90;99.90;;;;;;5075442;28;20028;-47
2021/12/13 00:48:29;;;;;;;0.08;0.08;;;4.90;99.90;;;;;;5075317;28;20016;-47
2021/12/13 00:51:25;;;;;;;0.00;0.00;;;4.90;99.90;;;;;;5075490;28;20070;-48
2021/12/13 00:53:53;;;;;;;0.00;0.00;;;4.80;99.90;;;;;;5074944;28;20032;-46
2021/12/13 00:56:43;;;;;;;0.00;0.00;;;4.90;99.90;;;;;;5075104;28;20024;-45
2021/12/13 00:59:10;;;;;;;0.00;0.00;;;4.70;99.90;;;;;;5074665;28;20467;-48
2021/12/13 01:01:37;;;;;;;0.00;0.00;;;4.80;99.90;;;;;;5077340;28;20032;-46
2021/12/13 01:04:08;;;;;;;0.00;0.00;;;4.80;99.90;;;;;;5094971;28;20043;-46
2021/12/13 01:06:52;;;;;;;0.00;0.00;;;4.80;99.90;;;;;;5094982;28;20086;-47
2021/12/13 01:09:55;;;;;;;0.00;0.00;;;4.80;99.90;;;;;;5094860;28;20447;-50
2021/12/13 01:12:23;;;;;;;0.00;0.00;;;4.80;99.90;;;;;;5087788;28;20024;-51
2021/12/13 01:15:06;;;;;;;0.00;0.00;;;4.80;99.90;;;;;;5090408;28;20455;-49
2021/12/13 01:17:58;;;;;;;0.08;0.03;;;4.70;99.90;;;;;;5074767;28;20027;-49
2021/12/13 01:23:50;;;;;;;0.00;0.00;;;4.60;99.90;;;;;;5024432;28;20036;-48
2021/12/13 01:28:57;;;;;;;0.00;0.00;;;4.60;99.90;;;;;;5074390;28;20464;-48
2021/12/13 01:31:31;;;;;;;;;;;4.60;99.90;;;;;;5074586;28;20056;-49
2021/12/13 01:33:59;;;;;;;0.00;0.00;;;4.70;99.90;;;;;;5074708;28;19915;-46
2021/12/13 01:36:33;;;;;;;0.00;0.00;;;4.70;99.90;;;;;;5074078;28;20024;-48
2021/12/13 01:39:06;;;;;;;0.00;0.00;;;4.70;99.90;;;;;;5074421;28;20111;-48
2021/12/13 01:41:54;;;;;;;0.10;0.10;;;4.80;99.90;;;;;;5074208;28;20029;-50
2021/12/13 01:44:28;;;;;;;0.00;0.00;;;4.80;99.90;;;;;;5088293;28;20068;-45
2021/12/13 01:47:10;;;;;;;0.00;0.00;;;4.80;99.90;;;;;;5094455;28;20512;-46
2021/12/13 01:49:46;;;;;;;0.00;0.00;;;4.80;99.90;;;;;;5094598;28;20051;-48
2021/12/13 01:52:17;;;;;;;0.00;0.00;;;4.70;99.90;;;;;;5094495;28;20050;-47
2021/12/13 01:54:43;;;;;;;0.00;0.00;;;4.80;99.90;;;;;;5079265;28;20047;-48
2021/12/13 01:59:50;;;;;;;0.00;0.00;;;4.70;99.90;;;;;;5074067;28;20029;-48
2021/12/13 02:02:33;;;;;;;0.00;0.00;;;4.70;99.90;;;;;;5074355;28;20080;-48
2021/12/13 02:05:38;;;;;;;0.00;0.00;;;4.70;99.90;;;;;;5088026;28;20151;-45
2021/12/13 02:08:10;;;;;;;0.00;0.00;;;4.70;99.90;;;;;;5094277;28;20016;-46
2021/12/13 02:10:50;;;;;;;0.00;0.00;;;4.60;99.90;;;;;;5093832;28;20024;-45
2021/12/13 02:13:21;;;;;;;0.00;0.00;;;4.70;99.90;;;;;;5093146;28;20012;-50
2021/12/13 02:18:38;;;;;;;0.00;0.00;;;4.70;99.90;;;;;;5073805;28;20391;-50
2021/12/13 02:21:17;;;;;;;0.00;0.00;;;4.70;99.90;;;;;;5073368;28;20048;-50
2021/12/13 02:23:47;;;;;;;0.00;0.00;;;4.70;99.90;;;;;;5073568;28;20082;-48
2021/12/13 02:26:13;;;;;;;0.00;0.00;;;4.60;99.90;;;;;;5085350;28;20012;-48
2021/12/13 02:28:43;;;;;;;0.00;0.00;;;4.60;99.90;;;;;;5075745;28;20070;-45
2021/12/13 02:31:19;;;;;;;0.05;0.05;;;4.70;99.90;;;;;;5093540;28;20445;-48
2021/12/13 02:33:51;;;;;;;0.00;0.00;;;4.60;99.90;;;;;;5093817;28;20044;-48
2021/12/13 02:36:24;;;;;;;0.00;0.00;;;4.70;99.90;;;;;;5077052;28;20111;-48
2021/12/13 02:38:53;;;;;;;0.00;0.00;;;4.70;99.90;;;;;;5073707;28;20025;-48
2021/12/13 02:41:22;;;;;;;0.00;0.00;;;4.70;99.90;;;;;;5073436;28;20066;-49
2021/12/13 02:43:52;;;;;;;0.00;0.00;;;4.60;99.90;;;;;;5073518;28;20518;-47
2021/12/13 02:46:18;;;;;;;0.00;0.00;;;4.70;99.90;;;;;;5086255;28;20031;-48
2021/12/13 02:48:58;;;;;;;0.00;0.00;;;4.70;99.90;;;;;;5093300;28;20032;-47
2021/12/13 02:51:41;;;;;;;0.00;0.00;;;4.70;99.90;;;;;;5075592;28;20023;-48
2021/12/13 02:54:18;;;;;;;0.00;0.00;;;4.70;99.90;;;;;;5093666;28;20048;-47
2021/12/13 02:56:50;;;;;;;0.00;0.00;;;4.70;99.90;;;;;;5079132;28;20370;-48
2021/12/13 02:59:16;;;;;;;0.00;0.00;;;4.60;99.90;;;;;;5073163;28;20452;-48
2021/12/13 03:01:47;;;;;;;0.00;0.00;;;4.60;99.90;;;;;;5074209;28;20037;-48
2021/12/13 03:04:18;;;;;;;0.00;0.00;;;4.60;99.90;;;;;;5073257;28;20467;-49
2021/12/13 03:07:03;;;;;;;0.00;0.00;;;4.80;99.90;;;;;;5084489;28;20511;-47
2021/12/13 03:09:31;;;;;;;0.00;0.00;;;4.70;99.90;;;;;;5093289;28;20365;-46
2021/12/13 03:12:00;;;;;;;0.00;0.00;;;4.80;99.90;;;;;;5093476;28;20165;-46
2021/12/13 03:14:31;;;;;;;0.00;0.00;;;4.80;99.90;;;;;;5093499;28;20066;-48
2021/12/13 03:17:15;;;;;;;0.10;0.10;;;4.70;99.90;;;;;;5083254;28;20031;-47
2021/12/13 03:19:40;;;;;;;0.00;0.00;;;4.70;99.90;;;;;;5073231;28;20024;-46
2021/12/13 03:22:43;;;;;;;0.00;0.00;;;4.70;99.90;;;;;;5073064;28;20032;-48
2021/12/13 03:25:14;;;;;;;0.00;0.00;;;4.70;99.90;;;;;;5075263;28;20024;-47
2021/12/13 03:28:02;;;;;;;0.00;0.00;;;4.70;99.90;;;;;;5078615;28;20478;-46
2021/12/13 03:30:53;;;;;;;0.00;0.00;;;4.70;99.90;;;;;;5076878;28;20036;-51
2021/12/13 03:33:29;;;;;;;0.10;0.10;;;4.80;99.90;;;;;;5076828;28;20028;-47
2021/12/13 03:35:59;;;;;;;0.00;0.00;;;4.80;99.90;;;;;;5076687;28;20451;-45
2021/12/13 03:38:33;;;;;;;0.00;0.00;;;4.80;99.90;;;;;;5092574;28;20422;-48
2021/12/13 03:41:03;;;;;;;2.08;0.32;;;4.80;99.90;;;;;;5078825;28;20043;-50
2021/12/13 03:43:40;;;;;;;0.00;0.00;;;4.80;99.90;;;;;;5096736;28;20024;-48
2021/12/13 03:46:11;;;;;;;0.00;0.00;;;4.70;99.90;;;;;;5096380;28;20027;-46
2021/12/13 03:48:38;;;;;;;0.45;0.35;;;4.70;99.90;;;;;;5080992;28;20082;-48
2021/12/13 03:51:09;;;;;;;0.00;0.00;;;4.80;99.90;;;;;;5076167;28;20024;-45
2021/12/13 03:53:36;;;;;;;0.00;0.00;;;4.80;99.90;;;;;;5076429;28;20325;-47
2021/12/13 03:56:09;;;;;;;0.00;0.00;;;4.80;99.90;;;;;;5076289;28;20029;-50
2021/12/13 03:58:44;;;;;;;0.00;0.00;;;4.80;99.90;;;;;;5088210;28;20016;-47
2021/12/13 04:01:19;;;;;;;0.10;0.10;;;4.80;99.90;;;;;;5096288;28;20481;-48
2021/12/13 04:03:46;;;;;;;0.00;0.00;;;4.80;99.90;;;;;;5096458;28;20077;-46
2021/12/13 04:06:17;;;;;;;0.00;0.00;;;4.80;99.90;;;;;;5096393;28;20024;-46
2021/12/13 04:08:49;;;;;;;0.00;0.00;;;4.80;99.90;;;;;;5085952;28;20028;-46
2021/12/13 04:11:15;;;;;;;0.10;0.10;;;4.80;99.90;;;;;;5075758;28;20043;-47
2021/12/13 04:13:48;;;;;;;0.00;0.00;;;4.90;99.90;;;;;;5058141;28;20118;-50
2021/12/13 04:16:34;;;;;;;0.00;0.00;;;4.80;99.90;;;;;;5075762;28;20462;-45
2021/12/13 04:19:10;;;;;;;0.00;0.00;;;4.90;99.90;;;;;;5085276;28;20016;-45
2021/12/13 04:21:57;;;;;;;0.00;0.00;;;4.80;99.90;;;;;;5077960;28;20239;-48
2021/12/13 04:24:54;;;;;;;0.00;0.00;;;4.90;99.90;;;;;;5096534;28;20024;-45
2021/12/13 04:27:30;;;;;;;0.00;0.00;;;4.90;99.90;;;;;;5090319;28;20032;-51
2021/12/13 04:30:03;;;;;;;0.00;0.00;;;4.90;99.90;;;;;;5082291;28;20112;-47
2021/12/13 04:32:35;;;;;;;0.00;0.00;;;4.90;99.90;;;;;;5075630;28;20078;-51
2021/12/13 04:35:07;;;;;;;0.00;0.00;;;4.90;99.90;;;;;;5075452;28;20111;-48
2021/12/13 04:37:41;;;;;;;0.00;0.00;;;4.90;99.90;;;;;;5074736;28;20020;-48
2021/12/13 04:40:13;;;;;;;0.00;0.00;;;4.90;99.90;;;;;;5087885;28;20036;-45
2021/12/13 04:42:42;;;;;;;0.00;0.00;;;5.00;99.90;;;;;;5095417;28;20477;-47
2021/12/13 04:45:21;;;;;;;0.00;0.00;;;4.90;99.90;;;;;;5095370;28;20057;-47
2021/12/13 04:48:11;;;;;;;0.00;0.00;;;4.90;99.90;;;;;;5095640;28;20085;-47
2021/12/13 04:50:53;;;;;;;0.00;0.00;;;5.00;99.90;;;;;;5081003;28;20103;-48
2021/12/13 04:53:21;;;;;;;1.10;0.38;;;5.00;99.90;;;;;;5074897;28;20024;-45
2021/12/13 04:55:48;;;;;;;0.00;0.00;;;5.00;99.90;;;;;;5075173;28;20058;-48
2021/12/13 04:58:16;;;;;;;0.00;0.00;;;5.00;99.90;;;;;;5074867;28;20051;-52
2021/12/13 05:00:47;;;;;;;0.00;0.00;;;5.00;99.90;;;;;;5086565;28;20036;-47
2021/12/13 05:03:16;;;;;;;0.00;0.00;;;4.90;99.90;;;;;;5094728;28;20447;-49
2021/12/13 05:05:42;;;;;;;0.30;0.30;;;4.90;99.90;;;;;;5095147;28;20060;-48
2021/12/13 05:08:13;;;;;;;0.00;0.00;;;4.90;99.90;;;;;;5094892;28;20016;-45
2021/12/13 05:10:42;;;;;;;0.00;0.00;;;5.00;99.90;;;;;;5086177;28;20081;-47
2021/12/13 05:13:19;;;;;;;0.00;0.00;;;5.00;99.90;;;;;;5074567;28;20028;-45
2021/12/13 05:15:57;;;;;;;0.00;0.00;;;5.00;99.90;;;;;;5074336;28;20027;-47
2021/12/13 05:18:28;;;;;;;0.00;0.00;;;5.00;99.90;;;;;;5074515;28;20385;-46
2021/12/13 05:21:08;;;;;;;0.00;0.00;;;5.10;99.90;;;;;;5081560;28;20131;-47
2021/12/13 05:23:38;;;;;;;0.00;0.00;;;5.20;99.90;;;;;;5094385;28;20024;-49
2021/12/13 05:26:07;;;;;;;0.00;0.00;;;5.20;99.90;;;;;;5094390;28;20013;-45
2021/12/13 05:28:42;;;;;;;0.00;0.00;;;5.20;99.90;;;;;;5094619;28;20020;-46
2021/12/13 05:31:15;;;;;;;0.00;0.00;;;5.30;99.90;;;;;;5087498;28;20412;-46
2021/12/13 05:33:42;;;;;;;0.00;0.00;;;5.20;99.90;;;;;;5074262;28;20020;-49
2021/12/13 05:36:23;;;;;;;0.98;0.90;;;5.20;99.90;;;;;;5074504;28;20017;-46
2021/12/13 05:39:00;;;;;;;0.00;0.00;;;5.20;99.90;;;;;;5074117;28;20506;-50
2021/12/13 05:41:29;;;;;;;0.00;0.00;;;5.20;99.90;;;;;;5079965;28;20028;-47
2021/12/13 05:43:59;;;;;;;0.00;0.00;;;5.20;99.90;;;;;;5091255;28;20477;-49
2021/12/13 05:46:47;;;;;;;0.00;0.00;;;5.20;99.90;;;;;;5073561;28;20031;-47
2021/12/13 05:49:30;;;;;;;0.00;0.00;;;5.20;99.90;;;;;;5072859;28;20035;-46
2021/12/13 05:52:14;;;;;;;0.00;0.00;;;5.30;99.90;;;;;;5104904;28;20528;-46
2021/12/13 05:54:53;;;;;;;0.00;0.00;;;5.20;99.90;;;;;;5092098;28;20020;-49
2021/12/13 05:57:27;;;;;;;0.20;0.20;;;5.20;99.90;;;;;;5089545;28;20470;-50
2021/12/13 06:00:02;;;;;;;0.00;0.00;;;5.20;99.90;;;;;;5092665;28;20020;-48
2021/12/13 06:03:03;;;;;;;0.00;0.00;;;5.30;99.90;;;;;;5087432;28;20091;-46
2021/12/13 06:05:37;;;;;;;0.00;0.00;;;5.30;99.90;;;;;;5090378;28;20481;-47
2021/12/13 06:08:15;;;;;;;0.00;0.00;;;5.40;99.90;;;;;;5091867;28;20459;-47
2021/12/13 06:10:47;;;;;;;0.00;0.00;;;5.40;99.90;;;;;;5091337;28;20032;-48
2021/12/13 06:13:24;;;;;;;0.00;0.00;;;5.40;99.90;;;;;;5092301;28;20023;-46
2021/12/13 06:15:50;;;;;;;0.00;0.00;;;5.30;99.90;;;;;;5073046;28;20032;-47
2021/12/13 06:18:18;;;;;;;0.00;0.00;;;5.40;99.90;;;;;;5091996;28;20073;-49
2021/12/13 06:20:50;;;;;;;0.00;0.00;;;5.40;99.90;;;;;;5087985;28;20032;-50
2021/12/13 06:23:25;;;;;;;0.00;0.00;;;5.40;99.90;;;;;;5070506;28;20032;-49
2021/12/13 06:26:02;;;;;;;0.00;0.00;;;5.40;99.90;;;;;;5089563;28;20040;-48
2021/12/13 06:28:52;;;;;;;0.00;0.00;;;5.50;99.90;;;;;;5091114;28;20024;-50
2021/12/13 06:31:21;;;;;;;0.00;0.00;;;5.60;99.90;;;;;;5087127;28;20487;-49
2021/12/13 06:33:56;;;;;;;0.00;0.00;;;5.60;99.90;;;;;;5072959;28;20036;-49
2021/12/13 06:36:34;;;;;;;0.00;0.00;;;5.60;99.90;;;;;;5072959;28;20028;-49
2021/12/13 06:39:07;;;;;;;0.00;0.00;;;5.60;99.90;;;;;;5072802;28;20062;-48
2021/12/13 06:41:38;;;;;;;0.00;0.00;;;5.60;99.90;;;;;;5079410;28;20069;-49
2021/12/13 06:44:08;;;;;;;0.00;0.00;;;5.70;99.90;;;;;;5087278;28;20374;-45
2021/12/13 06:46:51;;;;;;;0.00;0.00;;;5.70;99.90;;;;;;5092912;28;20024;-48
2021/12/13 06:49:20;;;;;;;0.20;0.20;;;5.70;99.90;;;;;;5088016;28;20033;-47
2021/12/13 06:51:48;;;;;;;0.00;0.00;;;5.70;99.90;;;;;;5092879;28;20052;-47
2021/12/13 06:54:20;;;;;;;0.00;0.00;;;5.70;99.90;;;;;;5091739;28;20085;-50
2021/12/13 06:56:57;;;;;;;0.00;0.00;;;5.70;99.90;;;;;;5073377;28;20024;-47
2021/12/13 06:59:23;;;;;;;0.00;0.00;;;5.60;99.90;;;;;;5093873;28;20039;-49
2021/12/13 07:02:03;;;;;;;0.00;0.00;;;5.60;99.90;;;;;;5094501;28;20032;-47
2021/12/13 07:04:47;;;;;;;0.00;0.00;;;5.60;99.90;;;;;;5087069;28;20052;-48
2021/12/13 07:07:16;;;;;;;0.00;0.00;;;5.50;99.90;;;;;;5076982;28;20039;-47
2021/12/13 07:09:57;;;;;;;0.00;0.00;;;5.50;99.90;;;;;;5089296;28;20028;-50
2021/12/13 07:12:24;;;;;;;;;;;5.60;99.90;;;;;;5076833;28;20051;-47
2021/12/13 07:14:50;;;;;;;0.00;0.00;;;5.60;99.90;;;;;;5105568;28;19914;-48
2021/12/13 07:17:16;;;;;;;0.00;0.00;;;5.60;99.90;;;;;;5093526;28;20024;-49
2021/12/13 07:19:46;;;;;;;0.00;0.00;;;5.60;99.90;;;;;;5092386;28;20452;-46
2021/12/13 07:22:21;;;;;;;0.00;0.00;;;5.50;99.90;;;;;;5080826;28;20044;-48
2021/12/13 07:24:54;;;;;;;0.00;0.00;;;5.60;99.90;;;;;;5076249;28;20071;-46
2021/12/13 07:27:32;;;;;;;0.00;0.00;;;5.60;99.90;;;;;;5077469;28;20028;-48
2021/12/13 07:30:10;;;;;;;0.00;0.00;;;5.70;99.90;;;;;;5107382;28;20026;-49
2021/12/13 07:32:45;;;;;;;0.00;0.00;;;5.60;99.90;;;;;;5091725;28;20025;-46
2021/12/13 07:35:16;;;;;;;0.00;0.00;;;5.60;99.90;;;;;;5075839;28;20066;-49
2021/12/13 07:37:49;;;;;;;0.00;0.00;;;5.60;99.90;;;;;;5075667;28;20024;-53
2021/12/13 07:40:54;;;;;;;0.20;0.20;;;5.60;99.90;;;;;;5075798;28;20025;-47
2021/12/13 07:43:29;;;;;;;0.00;0.00;;;5.50;99.90;;;;;;5013744;28;20040;-49
2021/12/13 07:46:03;;;;;;;0.00;0.00;;;5.50;99.90;;;;;;5077087;28;20041;-47
2021/12/13 07:48:41;;;;;;;0.10;0.10;;;5.40;99.90;;;;;;5095482;28;20059;-45
2021/12/13 07:51:15;;;;;;;0.00;0.00;;;5.50;99.90;;;;;;5096012;28;20099;-50
2021/12/13 07:53:52;;;;;;;0.00;0.00;;;5.50;99.90;;;;;;5075465;28;20029;-50
2021/12/13 07:56:44;;;;;;;0.00;0.00;;;5.50;99.90;;;;;;5078863;28;20169;-47
2021/12/13 07:59:12;;;;;;;;;;;5.50;99.90;;;;;;5076601;28;20032;-52
2021/12/13 08:01:47;;;;;;;0.00;0.00;;;5.50;99.90;;;;;;5076309;28;19916;-50
2021/12/13 08:04:30;;;;;;;0.00;0.00;;;5.50;99.90;;;;;;5075496;28;20098;-49
2021/12/13 08:07:08;;;;;;;1.42;1.35;;;5.60;99.90;;;;;;5075727;28;20112;-46
2021/12/13 08:09:42;;;;;;;0.00;0.00;;;5.60;99.90;;;;;;5090635;28;20032;-48
2021/12/13 08:12:22;;;;;;;0.00;0.00;;;5.60;99.90;;;;;;5089410;28;20020;-47
2021/12/13 08:14:52;;;;;;;0.00;0.00;;;5.60;99.90;;;;;;5095555;28;20016;-48
2021/12/13 08:17:27;;;;;;;0.00;0.00;;;5.70;99.90;;;;;;5095748;28;20054;-46
2021/12/13 08:20:06;;;;;;;0.00;0.00;;;5.80;99.90;;;;;;5093885;28;20043;-45
2021/12/13 08:22:32;;;;;;;0.52;0.22;;;5.80;99.90;;;;;;5090735;28;20036;-47
2021/12/13 08:25:08;;;;;;;0.00;0.00;;;6.00;99.90;;;;;;5084988;28;20036;-50
2021/12/13 08:27:36;;;;;;;0.00;0.00;;;6.00;99.90;;;;;;5114359;28;20027;-51
2021/12/13 08:30:16;;;;;;;0.00;0.00;;;6.00;99.90;;;;;;5084608;28;20074;-46
2021/12/13 08:33:06;;;;;;;0.00;0.00;;;6.00;99.90;;;;;;5086477;28;20025;-48
2021/12/13 08:36:05;;;;;;;0.00;0.00;;;6.00;99.90;;;;;;5074824;28;20075;-48
2021/12/13 08:38:39;;;;;;;0.00;0.00;;;6.10;99.90;;;;;;5075159;28;20032;-48
2021/12/13 08:41:22;;;;;;;0.05;0.05;;;6.10;99.90;;;;;;5075115;28;20453;-46
2021/12/13 08:44:12;;;;;;;0.00;0.00;;;6.10;99.90;;;;;;5081851;28;20043;-49
2021/12/13 08:46:46;;;;;;;0.00;0.00;;;6.20;99.90;;;;;;5064827;28;20035;-50
2021/12/13 08:49:17;;;;;;;0.00;0.00;;;6.20;99.90;;;;;;5094536;28;20028;-47
2021/12/13 08:52:33;;;;;;;0.00;0.00;;;6.20;99.90;;;;;;5076396;28;20420;-49
2021/12/13 08:55:10;;;;;;;0.00;0.00;;;6.20;99.90;;;;;;5047658;28;20082;-50
2021/12/13 08:57:51;;;;;;;3.90;0.57;;;6.30;99.90;;;;;;5094550;28;20034;-47
2021/12/13 09:00:24;;;;;;;0.00;0.00;;;6.40;99.90;;;;;;5093469;28;20034;-51
2021/12/13 09:02:55;;;;;;;0.00;0.00;;;6.40;99.90;;;;;;5090461;28;20028;-50
2021/12/13 09:05:30;;;;;;;0.30;0.30;;;6.40;99.90;;;;;;5074629;28;20037;-50
2021/12/13 09:08:14;;;;;;;0.98;0.98;;;6.50;99.90;;;;;;5074226;28;20497;-46
2021/12/13 09:10:40;;;;;;;0.00;0.00;;;6.60;99.90;;;;;;5074332;28;20029;-47
2021/12/13 09:13:07;;;;;;;0.00;0.00;;;6.70;99.90;;;;;;5074015;28;20066;-50
2021/12/13 09:15:35;;;;;;;0.00;0.00;;;6.60;99.90;;;;;;5074052;28;20104;-46
2021/12/13 09:18:03;;;;;;;0.00;0.00;;;6.70;99.90;;;;;;5074021;28;20032;-49
2021/12/13 09:20:32;;;;;;;0.00;0.00;;;6.70;99.90;;;;;;5074225;28;20123;-48
2021/12/13 09:23:10;;;;;;;4.47;0.85;;;6.70;99.90;;;;;;5080808;28;20078;-50
2021/12/13 09:25:43;;;;;;;0.70;0.70;;;6.70;99.90;;;;;;5084364;28;20186;-48
2021/12/13 09:28:23;;;;;;;0.57;0.30;;;6.90;99.90;;;;;;5094035;28;20050;-48
2021/12/13 09:30:52;;;;;;;0.00;0.00;;;6.80;99.90;;;;;;5093584;28;20115;-51
2021/12/13 09:33:28;;;;;;;0.00;0.00;;;6.90;99.90;;;;;;5093386;28;20020;-46
2021/12/13 09:35:56;;;;;;;0.00;0.00;;;7.00;99.90;;;;;;5094265;28;20061;-50
2021/12/13 09:38:37;;;;;;;0.00;0.00;;;6.90;99.90;;;;;;5092381;28;20024;-47
2021/12/13 09:41:06;;;;;;;0.00;0.00;;;7.00;99.90;;;;;;5082811;28;20074;-48
2021/12/13 09:43:40;;;;;;;0.00;0.00;;;7.10;99.90;;;;;;5095467;28;20387;-47
2021/12/13 09:46:07;;;;;;;0.00;0.00;;;7.20;99.90;;;;;;5093539;28;20067;-45
2021/12/13 09:48:54;;;;;;;0.00;0.00;;;7.50;99.90;;;;;;5105996;28;20028;-52
2021/12/13 09:51:30;;;;;;;0.00;0.00;;;7.60;99.90;;;;;;5094174;28;20040;-52
2021/12/13 09:53:59;;;;;;;0.17;0.10;;;7.70;99.90;;;;;;5093294;28;20028;-51
2021/12/13 09:56:28;;;;;;;2.53;1.55;;;7.70;99.90;;;;;;5093530;28;20044;-47
2021/12/13 09:59:05;;;;;;;0.00;0.00;;;7.60;99.90;;;;;;5097558;28;20020;-43
2021/12/13 10:01:35;;;;;;;0.10;0.10;;;7.60;99.90;;;;;;5114287;28;20035;-47
2021/12/13 10:04:27;;;;;;;1.35;1.02;;;7.70;99.90;;;;;;5112761;28;20173;-49
2021/12/13 10:07:18;;;;;;;0.00;0.00;;;7.50;99.90;;;;;;5093683;28;20463;-45
2021/12/13 10:09:49;;;;;;;0.13;0.13;;;7.60;99.90;;;;;;5093519;28;20028;-43
2021/12/13 10:12:27;;;;;;;0.00;0.00;;;7.70;99.90;;;;;;5093695;28;20058;-50
2021/12/13 10:15:00;;;;;;;0.15;0.15;;;7.70;99.90;;;;;;5093065;28;20024;-48
2021/12/13 10:17:34;;;;;;;0.00;0.00;;;7.70;99.90;;;;;;5093316;28;20467;-47
2021/12/13 10:20:05;;;;;;;0.00;0.00;;;7.70;99.90;;;;;;5074692;28;20055;-48
2021/12/13 10:22:33;;;;;;;0.00;0.00;;;7.90;99.90;;;;;;5093073;28;20044;-48
2021/12/13 10:25:39;;;;;;;0.00;0.00;;;8.10;99.90;;;;;;5091292;28;20282;-53
2021/12/13 10:28:10;;;;;;;0.00;0.00;;;8.20;99.90;;;;;;5090860;28;20038;-52
2021/12/13 10:30:42;;;;;;;0.00;0.00;;;8.10;99.90;;;;;;5093726;28;20032;-57
2021/12/13 10:33:09;;;;;;;0.00;0.00;;;8.20;99.90;;;;;;5092086;28;20032;-50
2021/12/13 10:35:40;;;;;;;0.00;0.00;;;8.20;99.90;;;;;;5079179;28;20026;-42
2021/12/13 10:38:17;;;;;;;0.00;0.00;;;8.40;99.90;;;;;;5111308;28;20022;-43
2021/12/13 10:40:53;;;;;;;0.00;0.00;;;8.60;99.90;;;;;;5104131;28;20094;-50
2021/12/13 10:43:22;;;;;;;0.00;0.00;;;8.60;99.90;;;;;;5091858;28;20382;-50
2021/12/13 10:45:54;;;;;;;0.00;0.00;;;8.60;99.90;;;;;;5092309;28;20031;-48
2021/12/13 10:48:20;;;;;;;;;;;8.40;99.90;;;;;;5093352;28;20024;-49
2021/12/13 10:50:56;;;;;;;0.00;0.00;;;8.60;99.90;;;;;;5092838;28;19911;-49
2021/12/13 10:53:24;;;;;;;0.00;0.00;;;8.60;99.90;;;;;;5093488;28;20076;-48
2021/12/13 10:55:58;;;;;;;0.00;0.00;;;8.40;99.90;;;;;;5073944;28;20487;-49
2021/12/13 10:58:29;;;;;;;0.00;0.00;;;8.60;99.90;;;;;;5092552;28;20024;-48
2021/12/13 11:01:13;;;;;;;0.00;0.00;;;8.70;99.90;;;;;;5091931;28;20028;-51
2021/12/13 11:03:39;;;;;;;0.00;0.00;;;8.80;99.90;;;;;;5091882;28;20390;-50
2021/12/13 11:06:07;;;;;;;0.00;0.00;;;8.80;99.90;;;;;;5091877;28;20024;-48
2021/12/13 11:08:33;;;;;;;0.00;0.00;;;8.80;99.90;;;;;;5082732;28;20382;-48
2021/12/13 11:11:08;;;;;;;0.55;0.55;;;8.80;99.90;;;;;;5083939;28;20039;-51
2021/12/13 11:13:37;;;;;;;0.00;0.00;;;8.80;99.90;;;;;;5092552;28;20032;-49
2021/12/13 11:16:10;;;;;;;0.00;0.00;;;8.70;99.90;;;;;;5086410;28;20023;-45
2021/12/13 11:18:36;;;;;;;0.00;0.00;;;8.40;99.90;;;;;;5083889;28;20143;-49
2021/12/13 11:21:09;;;;;;;0.00;0.00;;;8.30;99.90;;;;;;5072581;28;20131;-47
2021/12/13 11:23:35;;;;;;;0.00;0.00;;;8.30;99.90;;;;;;5083011;28;20020;-52
2021/12/13 11:26:06;;;;;;;0.00;0.00;;;8.20;99.90;;;;;;5082942;28;20035;-48
2021/12/13 11:28:34;;;;;;;1.55;1.45;;;8.20;99.90;;;;;;5090738;28;20024;-47
2021/12/13 11:31:10;;;;;;;1.17;0.45;;;7.90;99.90;;;;;;5089528;28;20036;-49
2021/12/13 11:33:39;;;;;;;1.90;1.35;;;7.80;99.90;;;;;;5072183;28;20446;-44
2021/12/13 11:36:39;;;;;;;0.00;0.00;;;7.70;99.90;;;;;;5072068;28;20023;-46
2021/12/13 11:39:52;;;;;;;0.00;0.00;;;7.80;99.90;;;;;;5054960;28;20036;-53
2021/12/13 11:42:39;;;;;;;0.00;0.00;;;7.90;99.90;;;;;;5040280;28;20052;-51
2021/12/13 11:45:32;;;;;;;0.00;0.00;;;8.20;99.90;;;;;;5074027;28;20020;-48
2021/12/13 11:48:17;;;;;;;0.00;0.00;;;8.10;99.90;;;;;;5075887;28;20021;-48
2021/12/13 11:50:58;;;;;;;0.00;0.00;;;8.40;99.90;;;;;;5079514;28;20100;-54
2021/12/13 11:53:46;;;;;;;0.00;0.00;;;8.50;99.90;;;;;;5086753;28;20062;-53
2021/12/13 11:56:47;;;;;;;0.00;0.00;;;8.80;99.90;;;;;;5091434;28;20078;-54
2021/12/13 11:59:40;;;;;;;2.50;1.00;;;8.90;99.90;;;;;;5082902;28;20024;-49
2021/12/13 12:02:31;;;;;;;0.00;0.00;;;9.00;99.90;;;;;;5075004;28;20120;-48
2021/12/13 12:05:11;;;;;;;2.55;1.65;;;8.90;99.90;;;;;;5068501;28;20067;-51
2021/12/13 12:08:15;;;;;;;0.05;0.05;;;8.70;99.90;;;;;;5075724;28;20039;-47
2021/12/13 12:11:12;;;;;;;0.00;0.00;;;8.40;99.90;;;;;;5075658;28;20474;-55
2021/12/13 12:14:01;;;;;;;0.00;0.00;;;8.30;99.90;;;;;;5074815;28;20016;-51
2021/12/13 12:16:28;;;;;;;0.00;0.00;;;8.40;99.90;;;;;;5070921;28;20074;-48
2021/12/13 12:18:56;;;;;;;0.00;0.00;;;8.30;99.90;;;;;;5068492;28;20105;-50
2021/12/13 12:21:40;;;;;;;0.00;0.00;;;8.50;99.90;;;;;;5071551;28;20412;-45
2021/12/13 12:24:07;;;;;;;0.00;0.00;;;8.50;99.90;;;;;;5073346;28;20450;-49
2021/12/13 12:26:34;;;;;;;0.00;0.00;;;8.50;99.90;;;;;;5062097;28;20512;-51
2021/12/13 12:29:08;;;;;;;0.00;0.00;;;8.40;99.90;;;;;;5071587;28;20075;-52
2021/12/13 12:31:37;;;;;;;0.00;0.00;;;8.40;99.90;;;;;;5062730;28;20085;-49
2021/12/13 12:34:05;;;;;;;0.00;0.00;;;8.40;99.90;;;;;;5070447;28;20467;-47
2021/12/13 12:36:58;;;;;;;0.00;0.00;;;8.40;99.90;;;;;;5070043;28;20402;-46
2021/12/13 12:39:38;;;;;;;0.10;0.10;;;8.60;99.90;;;;;;5065250;28;20024;-49
2021/12/13 12:42:25;;;;;;;0.00;0.00;;;8.50;99.90;;;;;;5058968;28;20036;-47
2021/12/13 12:44:54;;;;;;;0.00;0.00;;;8.60;99.90;;;;;;5061820;28;20043;-45
2021/12/13 12:47:34;;;;;;;0.00;0.00;;;8.60;99.90;;;;;;5067725;28;20035;-46
2021/12/13 12:50:26;;;;;;;0.00;0.00;;;8.60;99.90;;;;;;5066735;28;20025;-51
2021/12/13 12:53:12;;;;;;;0.00;0.00;;;8.70;99.90;;;;;;5065413;28;20099;-52
2021/12/13 12:55:55;;;;;;;0.00;0.00;;;8.70;99.90;;;;;;5054594;28;20090;-51
2021/12/13 12:58:31;;;;;;;0.00;0.00;;;8.60;99.90;;;;;;5064138;28;20107;-49
2021/12/13 13:01:00;;;;;;;0.00;0.00;;;8.60;99.90;;;;;;5071048;28;20043;-50
2021/12/13 13:03:30;;;;;;;0.00;0.00;;;8.70;99.90;;;;;;5072964;28;20335;-49
2021/12/13 13:06:12;;;;;;;0.00;0.00;;;8.80;99.90;;;;;;5089512;28;20028;-49
2021/12/13 13:08:39;;;;;;;;;;;8.60;99.90;;;;;;5093084;28;20357;-47
2021/12/13 13:11:27;;;;;;;0.15;0.15;;;8.60;99.90;;;;;;5093308;28;19996;-53
2021/12/13 13:14:09;;;;;;;0.00;0.00;;;8.60;99.90;;;;;;5094430;28;20110;-47
2021/12/13 13:16:38;;;;;;;0.00;0.00;;;8.60;99.90;;;;;;5071251;28;20387;-52
2021/12/13 13:19:05;;;;;;;0.00;0.00;;;8.60;99.90;;;;;;5092040;28;20494;-51
2021/12/13 13:21:44;;;;;;;0.00;0.00;;;8.60;99.90;;;;;;5083931;28;20036;-47
2021/12/13 13:24:10;;;;;;;17.15;6.65;;;8.60;99.90;;;;;;5074984;28;20101;-49
2021/12/13 13:26:36;;;;;;;2.35;1.13;;;8.50;99.90;;;;;;5081260;28;20151;-52
2021/12/13 13:29:06;;;;;;;0.00;0.00;;;8.40;99.90;;;;;;5093412;28;20470;-48
2021/12/13 13:31:42;;;;;;;1.65;0.45;;;8.40;99.90;;;;;;5078024;28;20052;-48
2021/12/13 13:34:14;;;;;;;8.48;6.60;;;8.20;99.90;;;;;;5076764;28;20067;-47
2021/12/13 13:36:55;;;;;;;0.00;0.00;;;8.00;99.90;;;;;;5093563;28;20111;-51
2021/12/13 13:39:26;;;;;;;0.00;0.00;;;7.80;99.90;;;;;;5090052;28;20031;-49
2021/12/13 13:42:15;;;;;;;0.00;0.00;;;7.80;99.90;;;;;;5078352;28;20033;-50
2021/12/13 13:44:56;;;;;;;28.50;7.70;;;7.90;99.90;;;;;;5076587;28;20029;-50
2021/12/13 13:47:35;;;;;;;0.00;0.00;;;8.00;99.90;;;;;;5087719;28;20390;-50
2021/12/13 13:50:37;;;;;;;0.00;0.00;;;7.80;99.90;;;;;;5090316;28;20751;-52
2021/12/13 13:53:53;;;;;;;0.00;0.00;;;7.70;99.90;;;;;;5083648;28;20020;-52
2021/12/13 13:56:35;;;;;;;0.00;0.00;;;7.50;99.90;;;;;;5074124;28;20511;-46